| time (UTC) | temp C | wind direction | speed KPH | gust KPH | rain 1hr cm | rain 24hr cm | rain mn cm | humidity % | barometer mb |
| 20260504184833 | 14 | 269 | 0.0 | 8.0 | 0.00 | 1.80 | 0.00 | 46 | 1016.6 |
| 20260504183402 | 14 | 325 | 0.0 | 4.8 | 0.00 | 1.80 | 0.00 | 47 | 1016.5 |
| 20260504181821 | 14 | 319 | 0.0 | 14.5 | 0.00 | 1.80 | 0.00 | 47 | 1016.0 |
| 20260504180326 | 14 | 240 | 0.0 | 8.0 | 0.00 | 1.80 | 0.00 | 48 | 1015.8 |
| 20260504174829 | 14 | 261 | 0.0 | 24.1 | 0.00 | 1.80 | 0.00 | 47 | 1015.4 |
| 20260504173356 | 14 | 300 | 0.0 | 20.9 | 0.00 | 1.80 | 0.00 | 47 | 1015.0 |
| 20260504171843 | 14 | 283 | 0.0 | 8.0 | 0.00 | 1.80 | 0.00 | 47 | 1014.6 |
| 20260504170321 | 14 | 284 | 0.0 | 6.4 | 0.00 | 1.80 | 0.00 | 46 | 1014.3 |
| 20260504160322 | 15 | 338 | 0.0 | 24.1 | 0.00 | 1.80 | 0.00 | 45 | 1013.1 |
| 20260504140320 | 17 | 339 | 0.0 | 9.7 | 0.00 | 1.80 | 0.36 | 46 | 1009.8 |
| 20260504130320 | 18 | 318 | 0.0 | 19.3 | 0.00 | 1.80 | 0.36 | 45 | 1008.5 |
| 20260504110324 | 22 | 306 | 0.0 | 3.2 | 0.00 | 1.80 | 0.36 | 53 | 1004.4 |
| 20260504100321 | 23 | 26 | 0.0 | 3.2 | 0.00 | 1.80 | 0.36 | 41 | 1002.4 |
| 20260504081836 | 25 | 196 | 0.0 | 3.2 | 0.00 | 1.80 | 0.36 | 36 | 999.0 |
| 20260504080320 | 25 | 223 | 0.0 | 4.8 | 0.00 | 1.80 | 0.36 | 41 | 998.4 |
| 20260504070339 | 25 | 114 | 0.0 | 9.7 | 0.00 | 1.80 | 0.36 | 48 | 996.9 |
| 20260504050327 | 26 | 189 | 0.0 | 8.0 | 0.00 | 1.80 | 0.36 | 53 | 996.4 |
| 20260504044835 | 26 | 212 | 0.0 | 1.6 | 0.00 | 1.80 | 0.36 | 52 | 996.5 |
| 20260504043325 | 27 | 157 | 0.0 | 22.5 | 0.00 | 1.80 | 0.36 | 49 | 996.5 |
| 20260504041831 | 28 | 134 | 0.0 | 25.7 | 0.00 | 1.80 | 0.36 | 46 | 996.4 |
| 20260504040339 | 28 | 224 | 0.0 | 8.0 | 0.00 | 1.80 | 0.36 | 47 | 996.6 |
| 20260504034819 | 28 | 267 | 1.6 | 14.5 | 0.00 | 1.80 | 0.36 | 50 | 996.6 |
| 20260504033328 | 28 | 194 | 0.0 | 24.1 | 0.00 | 1.80 | 0.36 | 49 | 996.9 |
| 20260504031837 | 28 | 243 | 0.0 | 25.7 | 0.00 | 1.80 | 0.36 | 47 | 996.7 |
| 20260504030323 | 28 | 96 | 0.0 | 11.3 | 0.00 | 1.80 | 0.36 | 48 | 996.8 |
| 20260504024829 | 28 | 217 | 0.0 | 19.3 | 0.00 | 1.80 | 0.36 | 51 | 996.9 |
| 20260504023335 | 28 | 137 | 0.0 | 3.2 | 0.00 | 1.80 | 0.36 | 52 | 997.0 |
| 20260504021838 | 27 | 202 | 1.6 | 20.9 | 0.00 | 1.80 | 0.36 | 54 | 997.1 |
| 20260504020340 | 27 | 246 | 0.0 | 8.0 | 0.00 | 1.80 | 0.36 | 57 | 997.4 |
| 20260504014900 | 26 | 268 | 0.0 | 1.6 | 0.00 | 1.80 | 0.36 | 63 | 997.9 |
| 20260504013320 | 25 | 94 | 0.0 | 0.0 | 0.00 | 1.80 | 0.36 | 66 | 998.0 |
| 20260504011846 | 25 | 313 | 0.0 | 0.0 | 0.00 | 1.80 | 0.36 | 66 | 998.2 |
| 20260504010331 | 26 | 36 | 0.0 | 1.6 | 0.00 | 1.80 | 0.36 | 64 | 998.1 |
| 20260504004834 | 26 | 123 | 0.0 | 0.0 | 0.00 | 1.80 | 0.36 | 67 | 998.4 |
| 20260504003335 | 26 | 204 | 0.0 | 3.2 | 0.00 | 1.80 | 0.36 | 69 | 998.8 |
| 20260504001834 | 25 | 219 | 0.0 | 1.6 | 0.00 | 1.80 | 0.36 | 72 | 998.6 |
| 20260504000336 | 24 | 192 | 0.0 | 0.0 | 0.00 | 1.80 | 0.36 | 76 | 998.7 |
| 20260503234838 | 23 | 294 | 0.0 | 1.6 | 0.00 | 1.80 | 0.36 | 79 | 998.8 |
| 20260503233320 | 23 | 252 | 0.0 | 0.0 | 0.00 | 1.80 | 0.36 | 81 | 999.0 |
| 20260503231827 | 23 | 227 | 0.0 | 1.6 | 0.00 | 1.80 | 0.36 | 82 | 998.5 |
| 20260503230335 | 23 | 163 | 0.0 | 0.0 | 0.00 | 1.80 | 0.36 | 85 | 999.0 |
| 20260503224834 | 22 | 104 | 0.0 | 0.0 | 0.00 | 1.80 | 0.36 | 86 | 999.0 |
| 20260503223319 | 22 | 137 | 0.0 | 6.4 | 0.00 | 1.80 | 0.36 | 87 | 999.0 |
| 20260503221824 | 22 | 17 | 0.0 | 1.6 | 0.00 | 1.80 | 0.36 | 88 | 999.0 |
| 20260503220329 | 22 | 234 | 0.0 | 3.2 | 0.10 | 1.80 | 0.36 | 90 | 998.9 |
| 20260503214852 | 22 | 215 | 0.0 | 0.0 | 0.10 | 1.80 | 0.36 | 91 | 998.4 |
| 20260503213336 | 21 | 148 | 0.0 | 1.6 | 0.20 | 1.80 | 0.36 | 92 | 998.4 |
| 20260503211841 | 21 | 201 | 0.0 | 1.6 | 0.61 | 1.80 | 0.36 | 92 | 998.1 |
| 20260503210320 | 21 | 96 | 0.0 | 19.3 | 0.79 | 1.70 | 0.33 | 91 | 998.1 |
| 20260503204825 | 21 | 186 | 3.2 | 25.7 | 0.89 | 1.70 | 0.33 | 91 | 997.9 |
| 20260503203328 | 21 | 154 | 0.0 | 19.3 | 0.79 | 1.60 | 0.33 | 92 | 997.9 |
| 20260503201832 | 21 | 237 | 0.0 | 35.4 | 0.41 | 1.19 | 0.23 | 92 | 998.3 |
| 20260503200331 | 21 | 242 | 0.0 | 3.2 | 0.10 | 0.89 | 0.18 | 92 | 999.0 |
| 20260503194830 | 21 | 131 | 0.0 | 0.0 | 0.10 | 0.79 | 0.15 | 92 | 999.2 |
| 20260503193335 | 20 | 127 | 0.0 | 14.5 | 0.20 | 0.79 | 0.15 | 92 | 999.5 |
| 20260503191844 | 20 | 114 | 0.0 | 1.6 | 0.51 | 0.79 | 0.15 | 92 | 999.5 |
| 20260503190319 | 20 | 240 | 0.0 | 6.4 | 0.79 | 0.79 | 0.15 | 92 | 1000.1 |